Commack, NY (11725)

9:42 AM EST on January 27, 2015 (GMT -0500)
Smithtown Pines | Change Station
CLOSE
Current Station
Personal Weather Station
Location: Smithtown, NY
Elevation: 135 ft
Nearby Weather Stations
Active Advisory: Blizzard Warning Active Notice: Public Information Statement

Elev 135 ft 40.84 °N, 73.25 °W | Updated 1 minute ago

Snow
Snow
19.9 °F
Feels Like 20 °F
N
2.0
Wind Variable Wind from NNE
Gusts 3.0 mph

Today
High -- | Low -- °F
--% Chance of Precip.
Yesterday
High -- | Low -- °F
Precip. -- in
7:08 AM 5:04 PM
First Quarter, 54% visible
Pressure 29.58 in
Visibility 0.1 miles
Clouds
Windchill 20 °F
Dew Point 18 °F
Humidity 94%
Rainfall 0.00 in
Snow Depth Not available.
UV 0.0 out of 12
Pollen .10 out of 12
Air Quality Not available.
Flu Activity Not available.
SPECI KISP 271428Z 34019G25KT 1/8SM R06/2000V2200FT SN FZFG VV007 M06/M08 A2958 RMK AO2 PK WND 34026/1417 P0003 T10611078 $

More Conditions Fewer Conditions

Pressure 29.58 in
Visibility 0.1 miles
Clouds
Windchill 20 °F
Dew Point 18 °F
Humidity 94%
Rainfall 0.00 in
Snow Depth Not available.
UV 0.0 out of 12
Pollen .10 out of 12
Air Quality Not available.
Flu Activity Not available.
SPECI KISP 271428Z 34019G25KT 1/8SM R06/2000V2200FT SN FZFG VV007 M06/M08 A2958 RMK AO2 PK WND 34026/1417 P0003 T10611078 $

More Conditions Fewer Conditions

10-Day Weather Forecast

Almanac

Astronomy

Jan. 27, 2015 Rise Set
Actual Time
Civil Twilight
Nautical Twilight
Astronomical Twilight
Moon
Length of Visible Light
Length of Day
Tomorrow will be .
, % of the Moon is Illuminated

Today's Extremes

State Highs State Lows

Community

WunderPhotos

Upload Photos

1,790,655 photos uploaded!

WunderBlogs® & News

Nearby

Air Quality

  Air Quality AQ Index Pollutant
Not available.

Snow Depth

Station Depth Elevation

Earthquake Activity

City Distance Mag. Time & Date
Minimum magnitude displayed is 2.5.

Coastal Water Temperatures

Place Temperature

Nearby Weather Stations